Tiempo atmosférico en la estación meteorológica de Robledo De Chavela, Madrid (790 m.)



Fecha
DESCASC
Temp. máxima en grados centígrados (hora)
DESCASC
Temp. mínima en grados centígrados (hora)
DESCASC
Temp. media en grados centígrados
DESCASC
Racha de viento máxima en m/sg (hora)
DESCASC
Velocidad máxima media en intervalos de 10 minutos(hora)
DESCASC
Precipitaciones diarias en mm
DESCASC
Precipitaciones de 00:00 a 06:00 en mm
DESCASC
Precipitaciones de 06:00 a 12:00 en mm
DESCASC
Precipitaciones de 12:00 a 18:00 en mm
DESCASC
Precipitaciones de 18:00 a 24:00 en mm
DESCASC
15-08-2019 34.7 (17:40) 22.6 (07:10) 28.7 10.83 (03:20) 5.83 (04:10) 0 0 0 0 0
14-08-2019 33.7 (17:50) 14.6 (00:00) 24.2 8.89 (17:10) 5.28 (17:10) 0 0 0 0 0
13-08-2019 30 (17:10) 14.3 (00:00) 22.2 10 (23:20) 4.72 (23:10) 0 0 0 0 0
12-08-2019 27.5 (17:50) 12.7 (00:00) 20.1 13.33 (08:50) 7.22 (08:40) 0 0 0 0 0
11-08-2019 27.9 (15:10) 17.3 (00:00) 22.6 13.89 (23:20) 5.83 (23:20) 0 0 0 0 0
10-08-2019 30.6 (18:00) 15.4 (00:00) 23 9.44 (17:00) 4.72 (18:10) 0 0 0 0 0
09-08-2019 29.1 (18:10) 20.7 (00:00) 24.9 13.06 (04:20) 7.22 (17:00) 0 0 0 0 0
08-08-2019 32.1 (16:10) 15.6 (00:00) 23.8 12.5 (19:10) 5.56 (17:30) 0 0 0 0 0
07-08-2019 27.6 (00:10) 19.6 (00:00) 23.6 6.39 (15:30) 3.89 (18:40) 0 0 0 0 0
06-08-2019 34.5 (17:30) 19.6 (00:00) 27.1 10.28 (17:00) 5.28 (17:00) 0 0 0 0 0
05-08-2019 34.6 (16:30) 19.1 (00:00) 26.8 11.11 (14:30) 5 (14:40) 0 0 0 0 0
04-08-2019 34.8 (16:50) 22.1 (00:00) 28.4 9.17 (04:10) 5 (04:50) 0 0 0 0 0
03-08-2019 34.9 (17:30) 19.7 (00:00) 27.3 9.72 (15:30) 4.72 (20:00) 0 0 0 0 0
02-08-2019 34.3 (16:40) 17.9 (00:00) 26.1 9.72 (17:10) 4.44 (17:50) 0 0 0 0 0
01-08-2019 33.3 (17:50) 18.8 (00:00) 26 10 (16:00) 5.28 (16:30) 0 0 0 0 0
31-07-2019 32.8 (17:40) 18.2 (00:00) 25.5 9.17 (13:10) 4.17 (23:00) 0 0 0 0 0
30-07-2019 30.4 (18:00) 14.2 (00:00) 22.3 12.22 (08:20) 6.94 (08:20) 0 0 0 0 0
29-07-2019 31.1 (17:20) 18 (00:00) 24.6 11.39 (23:59) 4.72 (15:30) 0 0 0 0 0
28-07-2019 29.8 (17:40) 12.9 (00:00) 21.3 8.89 (16:10) 4.44 (15:10) 0 0 0 0 0
27-07-2019 26.5 (16:00) 17.3 (00:00) 21.9 11.67 (18:30) 4.72 (17:20) 0 0 0 0 0
26-07-2019 29.8 (17:40) 20 (00:00) 24.9 10.83 (21:10) 5.28 (14:10) 0 0 0 0 0
25-07-2019 34.4 (17:00) 20.6 (00:00) 27.5 10.28 (15:10) 5.56 (13:50) 0 0 0 0 0
24-07-2019 35.3 (18:10) 19.2 (00:00) 27.3 8.06 (16:40) 4.17 (16:10) 0 0 0 0 0
23-07-2019 36.2 (17:50) 18.9 (00:00) 27.6 16.11 (19:50) 7.5 (19:50) 1.9 1.3 0.5 0 0.1
22-07-2019 36.2 (17:30) 22.4 (00:00) 29.3 8.61 (14:50) 5 (13:40) 0 0 0 0 0
21-07-2019 36.8 (18:20) 22.1 (00:00) 29.4 8.33 (17:00) 4.17 (17:50) 0 0 0 0 0
20-07-2019 36.4 (17:40) 21.6 (00:00) 29 10 (17:50) 4.17 (03:30) 0 0 0 0 0
19-07-2019 35.7 (18:20) 22 (00:00) 28.9 8.61 (15:40) 4.72 (16:00) 0 0 0 0 0

Gráficas

Temp. máximas Temp. mínimas Temp. medias Precipitaciones Rachas de viento máximas Velocidades máximas media en intervalos de 10 minutos

Datos horarios

Fecha y hora oficial Temperatura (ºC) Velocidad del viento (km/h) Dirección del viento Racha (km/h) Dirección de racha Precipitación (mm) Presión (hPa) Tendencia (hPa) Humedad (%)
2019-08-17 23:00:00 27 5 Noroeste 15 Noroeste 0 926.9 0.8 25
2019-08-17 22:00:00 29.4 9 Noroeste 26 Oeste 0 926.6 0.2 23
2019-08-17 21:00:00 31.5 12 Oeste 38 Sudoeste 0 926.3 -0.4 23
2019-08-17 20:00:00 33.2 11 Oeste 34 Oeste 0 926.1 -1.1 22
2019-08-17 19:00:00 34.3 11 Oeste 33 Sudoeste 0 926.4 -1.4 22
2019-08-17 18:00:00 34.6 13 Oeste 34 Sudoeste 0 926.7 -1.5 22
2019-08-17 17:00:00 34.5 20 Sudoeste 36 Sur 0 927.2 -1.6 22
2019-08-17 16:00:00 34.1 17 Oeste 33 Sudoeste 0 927.8 -1.7 22
2019-08-17 15:00:00 34.4 14 Oeste 32 Sur 0 928.2 -1.7 24
2019-08-17 14:00:00 33.1 17 Sudoeste 34 Sudoeste 0 928.8 -1.1 28
2019-08-17 13:00:00 31.2 14 Sur 26 Sur 0 929.5 -0.5 30
2019-08-17 12:00:00 30.6 7 Sur 18 Sudoeste 0 929.9 0 31
2019-08-17 11:00:00 30 5 Sur 13 Sudeste 0 929.9 0.4 31
2019-08-17 10:00:00 27.5 5 Sudoeste 10 Sudoeste 0 930 0.7 34
2019-08-17 09:00:00 26.2 0 Calma 3 Norte 0 929.9 1 36
2019-08-17 08:00:00 19.9 2 Norte 5 Nordeste 0 929.5 0.3 42
2019-08-17 07:00:00 20.9 0 Calma 4 Sudeste 0 929.3 -0.1 40
2019-08-17 06:00:00 22.7 3 Sudeste 31 Noroeste 0 928.9 -0.4 36
2019-08-17 05:00:00 24.5 16 Noroeste 31 Noroeste 0 929.2 -0.2 34
2019-08-17 04:00:00 25.5 12 Norte 28 Noroeste 0 929.4 -0.2 31
2019-08-17 03:00:00 26.7 9 Norte 23 Noroeste 0 929.3 0.1 29
2019-08-17 02:00:00 26.8 13 Norte 23 Norte 0 929.4 0.1 28
2019-08-17 01:00:00 28 7 Norte 18 Norte 0 929.6 0.8 28
2019-08-17 00:00:00 29.1 10 Norte 27 Norte 0 929.2 1 28
2019-08-16 23:00:00 29.6 8 Norte 20 Norte 0 929.3 1.6 29
2019-08-16 22:00:00 30.4 6 Norte 22 Norte 0 928.8 1.1 30
2019-08-16 21:00:00 31.8 6 Norte 27 Oeste 0 928.2 0.2 29
2019-08-16 20:00:00 32.5 10 Sudoeste 27 Sudoeste 0 927.7 -0.9 28
2019-08-16 19:00:00 34.3 11 Sudoeste 23 Sur 0 927.7 -1.5 27
2019-08-16 18:00:00 34.7 4 Sudoeste 25 Sudoeste 0 928 -1.9 27
2019-08-16 17:00:00 33.5 9 Sudoeste 27 Sur 0 928.6 -1.9 29
2019-08-16 16:00:00 33.1 8 Sur 26 Sur 0 929.2 -1.7 31
2019-08-16 15:00:00 32.5 9 Oeste 24 Sur 0 929.9 -1.5 32
2019-08-16 14:00:00 31.8 12 Sudoeste 24 Sudoeste 0 930.5 -0.9 34
2019-08-16 13:00:00 30.2 9 Sudeste 18 Sudeste 0 930.9 -0.7 38
2019-08-16 12:00:00 28.5 8 Sudeste 18 Sudeste 0 931.4 -0.4 42
2019-08-16 11:00:00 26.8 8 Sudeste 19 Sudeste 0 931.4 0 44
2019-08-16 10:00:00 25.3 10 Este 17 Nordeste 0 931.6 0.6 46
2019-08-16 09:00:00 23.6 6 Nordeste 15 Nordeste 0 931.8 1.1 48
2019-08-16 08:00:00 18.8 0 Calma 5 Noroeste 0 931.4 0.3 56
2019-08-16 07:00:00 19.8 2 Noroeste 11 Noroeste 0 931 -0.2 52
2019-08-16 06:00:00 21.3 5 Nordeste 10 Nordeste 0 930.7 -0.4 49
2019-08-16 05:00:00 22.1 4 Nordeste 13 Nordeste 0 931.1 -0.2 46
2019-08-16 04:00:00 22.6 6 Nordeste 12 Nordeste 0 931.2 -0.3 45
2019-08-16 03:00:00 23.3 6 Nordeste 12 Este 0 931.1 0.5 43
2019-08-16 02:00:00 24.1 6 Nordeste 15 Este 0 931.3 0.8 39
2019-08-16 01:00:00 26 12 Sudeste 27 Norte 0 931.5 1.3 34
2019-08-16 00:00:00 28.3 13 Norte 35 Norte 0 930.6 0.8 32
2019-08-15 23:00:00 28.8 20 Norte 37 Norte 0 930.5 1.1 31
2019-08-15 22:00:00 29.8 12 Norte 31 Norte 0 930.2 0.7 28
2019-08-15 21:00:00 30.8 9 Nordeste 21 Norte 0 929.8 0.3 26
2019-08-15 20:00:00 32.6 8 Norte 22 Nordeste 0 929.4 -0.5 26
2019-08-15 19:00:00 34.1 6 Norte 25 Noroeste 0 929.5 -1 26
2019-08-15 18:00:00 33.9 8 Oeste 26 Noroeste 0 929.5 -1.2 26
2019-08-15 17:00:00 33.6 4 Oeste 26 Noroeste 0 929.9 -1.2 28
2019-08-15 16:00:00 32.3 6 Norte 24 Noroeste 0 930.5 -1.1 31
2019-08-15 15:00:00 32.9 8 Noroeste 25 Oeste 0 930.7 -1.4 32
2019-08-15 14:00:00 31.7 10 Oeste 26 Oeste 0 931.1 -1.1 34
2019-08-15 13:00:00 30.7 10 Noroeste 24 Noroeste 0 931.6 -0.8 35
2019-08-15 12:00:00 29.9 3 Norte 17 Nordeste 0 932.1 -0.3 37
2019-08-15 11:00:00 29.9 2 Norte 18 Noroeste 0 932.2 0 41
2019-08-15 10:00:00 26.2 9 Norte 16 Norte 0 932.4 0.6 46
2019-08-15 09:00:00 24.7 8 Norte 21 Noroeste 0 932.4 1.1 49
2019-08-15 08:00:00 22.7 7 Norte 26 Norte 0 932.2 1.1 52
2019-08-15 07:00:00 22.8 13 Norte 32 Norte 0 931.8 0.5 51
2019-08-15 06:00:00 23.2 8 Norte 32 Norte 0 931.3 -0.3 50
2019-08-15 05:00:00 23.3 18 Noroeste 34 Noroeste 0 931.1 -0.7 49
2019-08-15 04:00:00 23.8 20 Noroeste 39 Norte 0 931.3 -0.3 48
2019-08-15 03:00:00 24.4 12 Norte 29 Norte 0 931.6 -0.1 42
2019-08-15 02:00:00 25.3 13 Norte 21 Noroeste 0 931.8 0.1 29
2019-08-15 01:00:00 27.3 10 Norte 23 Norte 0 931.6 0.4 28
2019-08-15 00:00:00 27.7 9 Norte 26 Norte 0 931.7 0.9 27
2019-08-14 23:00:00 27.9 13 Norte 25 Norte 0 931.7 1.6 26
2019-08-14 22:00:00 28.5 11 Norte 24 Norte 0 931.2 1.2 25
2019-08-14 21:00:00 29.3 6 Norte 14 Nordeste 0 930.8 0.4 24
2019-08-14 20:00:00 31.1 6 Nordeste 22 Noroeste 0 930.1 -0.5 23
2019-08-14 19:00:00 32.4 12 Noroeste 30 Sur 0 930 -1.1 23
2019-08-14 18:00:00 31.6 13 Sudeste 32 Sudoeste 0 930.4 -1.3 23
2019-08-14 17:00:00 32.1 14 Sur 30 Sudoeste 0 930.6 -1.6 24
2019-08-14 16:00:00 31.7 8 Oeste 30 Sudoeste 0 931.1 -1.8 24
2019-08-14 15:00:00 30.8 14 Sur 30 Sur 0 931.7 -1.6 26
2019-08-14 14:00:00 30 10 Sudoeste 26 Sur 0 932.2 -1.2 26
2019-08-14 13:00:00 28.4 8 Sur 19 Sudoeste 0 932.9 -0.7 28
2019-08-14 12:00:00 26.3 8 Sudeste 16 Sudeste 0 933.3 0.1 29
2019-08-14 11:00:00 24.4 6 Sudoeste 14 Sur 0 933.4 0.5 31
2019-08-14 10:00:00 22.2 5 Sudoeste 12 Sudoeste 0 933.6 0.7 34
2019-08-14 09:00:00 21.7 0 Calma 6 Nordeste 0 933.2 0.4 35
2019-08-14 08:00:00 17.8 5 Nordeste 10 Nordeste 0 932.9 0.1 40
2019-08-14 07:00:00 15 3 Nordeste 7 Nordeste 0 932.9 0.1 40
2019-08-14 06:00:00 14.9 2 Nordeste 7 Nordeste 0 932.8 0 39
2019-08-14 05:00:00 16.6 4 Nordeste 8 Nordeste 0 932.8 0.2 36
2019-08-14 04:00:00 16.1 2 Norte 5 Nordeste 0 932.8 0.5 36
2019-08-14 03:00:00 17.3 0 Calma 9 Nordeste 0 932.8 0.9 33
2019-08-14 02:00:00 18.8 3 Norte 13 Sudoeste 0 932.6 0.8 31
2019-08-14 01:00:00 21.6 3 Sur 27 Norte 0 932.3 1 28
2019-08-14 00:00:00 23.6 13 Norte 36 Norte 0 931.9 1 27
2019-08-13 23:00:00 24 15 Norte 32 Norte 0 931.8 1.3 26
2019-08-13 22:00:00 24.6 11 Norte 26 Nordeste 0 931.3 0.9 24
2019-08-13 21:00:00 25.6 10 Nordeste 22 Norte 0 930.9 0.7 24
2019-08-13 20:00:00 27.9 6 Norte 27 Norte 0 930.5 -0.1 23
2019-08-13 19:00:00 28.6 9 Nordeste 24 Norte 0 930.4 -0.6 23
2019-08-13 18:00:00 28.9 8 Nordeste 23 Nordeste 0 930.2 -1.2 23
2019-08-13 17:00:00 29.5 5 Noroeste 25 Norte 0 930.6 -1.4 23
2019-08-13 16:00:00 28.4 11 Noroeste 30 Sudoeste 0 931 -1.6 25
2019-08-13 15:00:00 27.4 9 Sur 23 Sudoeste 0 931.4 -1.5 29
2019-08-13 14:00:00 26.7 7 Sudoeste 22 Sudoeste 0 932 -0.9 34
2019-08-13 13:00:00 24.6 6 Sudeste 17 Sudoeste 0 932.6 -0.4 36
2019-08-13 12:00:00 23.7 4 Sudeste 18 Sudeste 0 932.9 0.1 38
2019-08-13 11:00:00 21.6 4 Sudeste 14 Sudeste 0 932.9 0.3 39
2019-08-13 10:00:00 19.8 2 Sudeste 11 Sudeste 0 933 0.5 42
2019-08-13 09:00:00 18.3 5 Este 9 Nordeste 0 932.8 0.5 46
2019-08-13 08:00:00 14.7 4 Nordeste 7 Nordeste 0 932.6 0.1 51
2019-08-13 07:00:00 14.4 3 Nordeste 13 Nordeste 0 932.5 -0.3 52
2019-08-13 06:00:00 15.6 6 Nordeste 15 Este 0 932.3 -0.9 50
2019-08-13 05:00:00 15.2 5 Nordeste 12 Nordeste 0 932.5 -0.6 52
2019-08-13 04:00:00 15.5 5 Nordeste 12 Este 0 932.8 0.1 49
2019-08-13 03:00:00 16.8 6 Nordeste 16 Nordeste 0 933.2 1.4 45
2019-08-13 02:00:00 18.1 7 Este 13 Nordeste 0 933.1 1.5 38
2019-08-13 01:00:00 19.1 3 Este 27 Este 0 932.7 1.6 34
2019-08-13 00:00:00 18.4 0 Calma 4 Este 0 931.8 1 34
2019-08-12 23:00:00 18.9 0 Calma 12 Nordeste 0 931.6 1.6 33
2019-08-12 22:00:00 21.9 6 Nordeste 35 Nordeste 0 931.1 1.2 30
2019-08-12 21:00:00 22.5 12 Norte 36 Norte 0 930.8 0.8 29
2019-08-12 20:00:00 24.9 12 Norte 28 Norte 0 930 -0.2 27
2019-08-12 19:00:00 25.8 10 Nordeste 21 Nordeste 0 929.9 -1 27
2019-08-12 18:00:00 26 9 Nordeste 23 Nordeste 0 930 -1.4 26
2019-08-12 17:00:00 26.2 5 Noroeste 27 Norte 0 930.2 -1.5 28
2019-08-12 16:00:00 25.5 9 Nordeste 22 Nordeste 0 930.9 -1.2 27
2019-08-12 15:00:00 24.8 5 Nordeste 23 Norte 0 931.4 -1.2 29
2019-08-12 14:00:00 23.9 9 Norte 25 Nordeste 0 931.7 -0.8 31
2019-08-12 13:00:00 22.6 8 Nordeste 36 Noroeste 0 932.1 -0.1 35
2019-08-12 12:00:00 21 9 Norte 31 Noroeste 0 932.6 0.9 38
2019-08-12 11:00:00 19.3 3 Norte 42 Noroeste 0 932.5 1.1 46
2019-08-12 10:00:00 15.8 13 Norte 40 Noroeste 0 932.2 1.2 61
2019-08-12 09:00:00 14.2 21 Noroeste 48 Noroeste 0 931.7 0.7 67
2019-08-12 08:00:00 13.2 6 Sudoeste 31 Norte 0 931.4 0.7 70
2019-08-12 07:00:00 12.9 8 Noroeste 26 Noroeste 0 931 0.4 67
2019-08-12 06:00:00 13.9 7 Norte 23 Nordeste 0 931 0.2 63
2019-08-12 05:00:00 14.6 11 Norte 26 Nordeste 0 930.7 -0.1 55
2019-08-12 04:00:00 15.4 6 Norte 22 Norte 0 930.6 -0.2 49
2019-08-12 03:00:00 16.4 6 Norte 31 Noroeste 0 930.8 0 45
2019-08-12 02:00:00 17 13 Norte 32 Nordeste 0 930.8 0.4 44
2019-08-12 01:00:00 18.3 13 Norte 39 Norte 0 930.8 1.1 38
2019-08-12 00:00:00 19.5 12 Norte 50 Norte 0 930.8 1.8 34
2019-08-11 23:00:00 20.3 16 Norte 38 Noroeste 0 930.4 1.7 33
2019-08-11 22:00:00 21.3 10 Norte 33 Noroeste 0 929.7 1 33
2019-08-11 21:00:00 22.4 10 Norte 35 Norte 0 929 0.6 34
2019-08-11 20:00:00 24 12 Norte 36 Noroeste 0 928.7 0.4 33
2019-08-11 19:00:00 25.2 12 Noroeste 27 Norte 0 928.7 0.4 35
2019-08-11 18:00:00 25 11 Noroeste 25 Norte 0 928.4 0 37
2019-08-11 17:00:00 25.4 10 Noroeste 30 Oeste 0 928.3 -0.5 37
2019-08-11 16:00:00 25.3 12 Nordeste 32 Sudoeste 0 928.3 -0.9 38
2019-08-11 15:00:00 26.5 15 Sudoeste 31 Sudoeste 0 928.4 -1.1 35
2019-08-11 14:00:00 27 17 Sudoeste 32 Sudoeste 0 928.8 -0.9 33
2019-08-11 13:00:00 24.8 13 Oeste 27 Sur 0 929.2 -0.2 36
2019-08-11 12:00:00 24.6 13 Sudoeste 26 Sur 0 929.5 0.5 38
2019-08-11 11:00:00 23.3 8 Sudoeste 19 Sudoeste 0 929.7 0.9 42
2019-08-11 10:00:00 21.8 10 Oeste 21 Oeste 0 929.4 1.1 43
2019-08-11 09:00:00 21.4 4 Noroeste 11 Norte 0 929 0.8 43
2019-08-11 08:00:00 18.3 2 Noroeste 10 Sudoeste 0 928.8 0 49
2019-08-11 07:00:00 18.6 0 Calma 18 Noroeste 0 928.3 0 46
2019-08-11 06:00:00 19.6 7 Norte 35 Norte 0 928.2 -0.4 45
2019-08-11 05:00:00 20.3 15 Noroeste 35 Noroeste 0 928.8 0.2 42
2019-08-11 04:00:00 20.4 6 Noroeste 31 Noroeste 0 928.3 -0.5 41
2019-08-11 03:00:00 21 14 Noroeste 26 Norte 0 928.6 -0.6 39
2019-08-11 02:00:00 21.7 6 Oeste 20 Noroeste 0 928.6 -0.9 39
2019-08-11 01:00:00 22.8 10 Noroeste 26 Norte 0 928.8 -0.5 37
2019-08-11 00:00:00 23.9 8 Norte 28 Noroeste 0 929.2 0.2 36
2019-08-10 23:00:00 24.8 10 Norte 21 Norte 0 929.5 0.4 33
2019-08-10 22:00:00 25 8 Noroeste 14 Oeste 0 929.3 0 30
2019-08-10 21:00:00 26.5 6 Noroeste 24 Oeste 0 929 -0.5 29
2019-08-10 20:00:00 27.4 8 Oeste 24 Sudoeste 0 929.1 -1 26
2019-08-10 19:00:00 28.9 11 Sudoeste 32 Sudoeste 0 929.3 -1.4 23
2019-08-10 18:00:00 30.4 13 Sur 28 Sur 0 929.5 -1.6 23
2019-08-10 17:00:00 28.4 13 Sudoeste 34 Sudoeste 0 930.1 -1.4 31
2019-08-10 16:00:00 28.1 17 Sur 28 Sur 0 930.7 -1 34
2019-08-10 15:00:00 27.3 11 Sur 25 Sudoeste 0 931.1 -1 35
2019-08-10 14:00:00 27.3 7 Sur 24 Sur 0 931.5 -0.9 36
2019-08-10 13:00:00 26 8 Sudeste 23 Sudoeste 0 931.7 -0.9 37
2019-08-10 12:00:00 24.7 6 Sudoeste 23 Sudoeste 0 932.1 -0.2 42
2019-08-10 11:00:00 22.9 5 Sudeste 13 Sudeste 0 932.4 0.6 46
2019-08-10 10:00:00 21.5 4 Sur 9 Sudeste 0 932.6 1.2 48
2019-08-10 09:00:00 19.7 2 Sur 5 Sur 0 932.3 1 55
2019-08-10 08:00:00 16.6 4 Nordeste 10 Norte 0 931.8 0.9 63
2019-08-10 07:00:00 17.9 8 Noroeste 19 Noroeste 0 931.4 0.4 58
2019-08-10 06:00:00 17.5 5 Noroeste 18 Norte 0 931.3 0.5 60
2019-08-10 05:00:00 18.7 8 Noroeste 15 Noroeste 0 930.9 0.1 57
2019-08-10 04:00:00 18.4 2 Sudoeste 17 Norte 0 931 0.1 58
2019-08-10 03:00:00 19.6 2 Noroeste 17 Oeste 0 930.8 0.1 56
2019-08-10 02:00:00 20.5 4 Norte 24 Noroeste 0 930.8 0.3 54
2019-08-10 01:00:00 21.2 9 Noroeste 26 Noroeste 0 930.9 0.7 57
2019-08-10 00:00:00 21.5 7 Norte 18 Norte 0 930.7 0.9 67
2019-08-09 23:00:00 21.8 6 Sudoeste 21 Sudoeste 0 930.5 1 67
2019-08-09 22:00:00 22.4 10 Sudoeste 18 Oeste 0 930.2 1 64
2019-08-09 21:00:00 24.2 9 Oeste 24 Sudoeste 0 929.8 0.7 59
2019-08-09 20:00:00 24.8 14 Sudoeste 42 Sudoeste 0 929.5 0.7 59
2019-08-09 19:00:00 26.9 17 Sudoeste 37 Sudoeste 0 929.2 0.2 53
2019-08-09 18:00:00 28.1 12 Oeste 46 Sudoeste 0 929.1 -0.3 50
2019-08-09 17:00:00 28.5 26 Sudoeste 46 Oeste 0 928.8 -0.9 48
2019-08-09 16:00:00 27.3 23 Oeste 40 Sudoeste 0 929 -0.7 51
2019-08-09 15:00:00 27.7 20 Sudoeste 40 Sudoeste 0 929.4 0.2 51
2019-08-09 14:00:00 26.8 19 Sudoeste 40 Sudoeste 0 929.7 0.8 54
2019-08-09 13:00:00 26.7 22 Sudoeste 40 Sudoeste 0 929.7 0.8 56
2019-08-09 12:00:00 25.7 18 Sudoeste 40 Oeste 0 929.2 0.6 60
2019-08-09 11:00:00 24.3 14 Sudoeste 29 Sudoeste 0 928.9 0.6 63
2019-08-09 10:00:00 22.5 12 Oeste 27 Oeste 0 928.9 1 67
2019-08-09 09:00:00 21.6 10 Noroeste 28 Oeste 0 928.6 0.8 69
2019-08-09 08:00:00 21.3 10 Oeste 27 Noroeste 0 928.3 0.6 66
2019-08-09 07:00:00 21.3 9 Oeste 23 Oeste 0 927.9 0.3 67
2019-08-09 06:00:00 21.5 5 Oeste 21 Oeste 0 927.8 0.3 63
2019-08-09 05:00:00 22.4 12 Oeste 47 Sudoeste 0 927.7 0.3 57
2019-08-09 04:00:00 23.4 22 Sudoeste 41 Sur 0 927.6 -0.1 54
2019-08-09 03:00:00 24.2 14 Sudoeste 24 Sudoeste 0 927.5 0.1 50
2019-08-09 02:00:00 26.5 13 Oeste 26 Oeste 0 927.4 -0.2 42
2019-08-09 01:00:00 25.6 7 Oeste 17 Oeste 0 927.7 0.8 43
2019-08-09 00:00:00 25.5 6 Noroeste 11 Noroeste 0 927.4 0.7 41
2019-08-08 23:00:00 26.7 7 Oeste 26 Oeste 0 927.6 1 39
2019-08-08 22:00:00 27.9 10 Oeste 25 Noroeste 0 926.9 0.5 37
2019-08-08 21:00:00 28.8 10 Oeste 24 Oeste 0 926.7 0.3 36
2019-08-08 20:00:00 30 12 Oeste 45 Oeste 0 926.6 0.2 35
2019-08-08 19:00:00 30.8 15 Oeste 37 Oeste 0 926.4 -0.6 35
2019-08-08 18:00:00 30.9 19 Oeste 43 Oeste 0 926.4 -1.1 33
2019-08-08 17:00:00 31.9 17 Oeste 42 Sudoeste 0 926.4 -1.5 35
2019-08-08 16:00:00 31.1 17 Oeste 33 Sudoeste 0 927 -1.5 36
2019-08-08 15:00:00 29.4 13 Sudoeste 31 Sudoeste 0 927.5 -1.2 39
2019-08-08 14:00:00 28.7 14 Sudoeste 29 Oeste 0 927.9 -0.8 42
2019-08-08 13:00:00 27.8 12 Sudoeste 28 Sudoeste 0 928.5 -0.3 44
2019-08-08 12:00:00 26.2 6 Sur 17 Sudoeste 0 928.7 0 44
2019-08-08 11:00:00 24.6 9 Sur 15 Sur 0 928.7 0.3 46
2019-08-08 10:00:00 22.7 5 Sudoeste 10 Sudoeste 0 928.8 0.5 51
2019-08-08 09:00:00 21.2 2 Nordeste 5 Nordeste 0 928.7 0.5 57
2019-08-08 08:00:00 16.9 0 Calma 9 Oeste 0 928.4 0.1 69
2019-08-08 07:00:00 16.3 2 Nordeste 5 Sudoeste 0 928.3 -0.1 70
2019-08-08 06:00:00 16.3 0 Calma 8 Noroeste 0 928.2 -0.5 70
2019-08-08 05:00:00 16.8 0 Calma 4 Nordeste 0 928.3 -0.3 68
2019-08-08 04:00:00 17.9 0 Calma 10 Sudoeste 0 928.4 -0.1 65
2019-08-08 03:00:00 17.9 0 Calma 6 Sudoeste 0 928.7 0 66
2019-08-08 02:00:00 18 2 Sur 6 Noroeste 0 928.6 0.2 65
2019-08-08 01:00:00 18.2 0 Calma 7 Noroeste 0 928.5 0.6 62
2019-08-08 00:00:00 19.6 2 Noroeste 6 Noroeste 0 928.7 1.2 58
2019-08-07 23:00:00 20.5 0 Calma 10 Sur 0 928.4 1.1 56
2019-08-07 22:00:00 21.4 2 Oeste 14 Oeste 0 927.9 0.4 53
2019-08-07 21:00:00 23.4 6 Oeste 17 Sudoeste 0 927.5 -0.2 49
2019-08-07 20:00:00 24 10 Sudoeste 20 Sudoeste 0 927.3 -0.7 48
2019-08-07 19:00:00 24.4 13 Sudoeste 22 Sudoeste 0 927.5 -0.7 48
2019-08-07 18:00:00 24.5 4 Oeste 22 Sudoeste 0 927.7 -0.6 47
2019-08-07 17:00:00 25.1 10 Oeste 19 Oeste 0 928 0 46
2019-08-07 16:00:00 25.3 7 Oeste 23 Nordeste 0 928.2 0.5 46
2019-08-07 15:00:00 23.6 11 Sur 15 Sudoeste 0 928.3 1.2 51
2019-08-07 14:00:00 24.8 9 Oeste 18 Sudoeste 0 928 1 48
2019-08-07 13:00:00 25.2 12 Sudoeste 18 Sudoeste 0 927.7 1.4 46
2019-08-07 12:00:00 24.5 6 Sudoeste 13 Oeste 0 927.1 1.2 48
2019-08-07 11:00:00 24.3 6 Oeste 19 Noroeste 0 927 1.6 49
2019-08-07 10:00:00 23.8 9 Noroeste 22 Noroeste 0 926.3 1.2 48
2019-08-07 09:00:00 23.1 8 Norte 18 Noroeste 0 925.9 1.1 48
2019-08-07 08:00:00 21.9 2 Noroeste 10 Oeste 0 925.4 0.8 49
2019-08-07 07:00:00 22.1 2 Oeste 8 Sur 0 925.1 0.1 48
2019-08-07 06:00:00 22.7 0 Calma 11 Norte 0 924.8 -0.3 44
2019-08-07 05:00:00 23.7 6 Noroeste 14 Norte 0 924.6 -0.8 40
2019-08-07 04:00:00 24 5 Noroeste 13 Noroeste 0 925 -0.4 39
2019-08-07 03:00:00 24.3 6 Noroeste 15 Oeste 0 925.1 -0.7 39
2019-08-07 02:00:00 25.3 6 Noroeste 20 Norte 0 925.4 -0.3 36
2019-08-07 01:00:00 26.6 10 Norte 23 Norte 0 925.4 0.5 33
2019-08-07 00:00:00 27.5 8 Norte 17 Norte 0 925.8 1.3 30
2019-08-06 23:00:00 26.8 6 Noroeste 18 Oeste 0 925.7 1.5 30
2019-08-06 22:00:00 28.8 11 Oeste 27 Oeste 0 924.9 0.4 29
2019-08-06 21:00:00 29.5 15 Oeste 35 Sudoeste 0 924.5 -0.1 28
2019-08-06 20:00:00 30.6 17 Oeste 35 Sudoeste 0 924.2 -0.7 26
2019-08-06 19:00:00 31.3 15 Sudoeste 35 Oeste 0 924.5 -1 25
2019-08-06 18:00:00 33 16 Sudoeste 35 Sudoeste 0 924.6 -1.5 24
2019-08-06 17:00:00 33.2 19 Sudoeste 37 Sudoeste 0 924.9 -1.7 26
2019-08-06 16:00:00 32.6 15 Sudoeste 34 Sudeste 0 925.5 -1.7 27
2019-08-06 15:00:00 32.5 11 Sudoeste 32 Sudoeste 0 926.1 -1.4 27
2019-08-06 14:00:00 31.8 11 Sudoeste 26 Sur 0 926.6 -1.1 27
2019-08-06 13:00:00 30.7 10 Sudoeste 21 Sur 0 927.2 -0.4 30
2019-08-06 12:00:00 29.9 10 Sudoeste 24 Sur 0 927.5 0.1 31
2019-08-06 11:00:00 28.2 10 Sudoeste 17 Sur 0 927.7 0.5 32
2019-08-06 10:00:00 27.3 3 Sur 10 Sudeste 0 927.6 0.8 34
2019-08-06 09:00:00 23.9 0 Calma 4 Sudoeste 0 927.4 0.6 38
2019-08-06 08:00:00 20.7 0 Calma 5 Nordeste 0 927.2 0.2 41
2019-08-06 07:00:00 21 0 Calma 17 Norte 0 926.8 -0.2 38
2019-08-06 06:00:00 24.6 12 Noroeste 24 Noroeste 0 926.8 -0.4 34
2019-08-06 05:00:00 24.5 8 Noroeste 22 Noroeste 0 927 -0.3 34
2019-08-06 04:00:00 25.2 9 Noroeste 24 Norte 0 927 -0.3 33
2019-08-06 03:00:00 26.4 11 Norte 25 Norte 0 927.2 0.2 32
2019-08-06 02:00:00 26.4 6 Norte 23 Noroeste 0 927.3 0.3 32
2019-08-06 01:00:00 27.5 12 Noroeste 25 Norte 0 927.3 0.8 29
2019-08-06 00:00:00 27.8 5 Noroeste 16 Norte 0 927 0.9 26
2019-08-05 23:00:00 26.5 6 Noroeste 14 Noroeste 0 927 1.2 24
2019-08-05 22:00:00 28.1 7 Noroeste 22 Oeste 0 926.5 0.6 24
2019-08-05 21:00:00 30.6 11 Oeste 30 Oeste 0 926.1 0.1 23
2019-08-05 20:00:00 32.5 12 Oeste 25 Noroeste 0 925.8 -0.7 22
2019-08-05 19:00:00 33.5 11 Oeste 28 Sudoeste 0 925.9 -0.9 21
2019-08-05 18:00:00 33.9 12 Sudoeste 28 Oeste 0 926 -1.3 20
2019-08-05 17:00:00 33.3 16 Oeste 33 Sudoeste 0 926.5 -1.1 20
2019-08-05 16:00:00 33.8 16 Sudoeste 36 Sudoeste 0 926.8 -1.5 23
2019-08-05 15:00:00 33.3 14 Sudoeste 40 Sudoeste 0 927.3 -1.3 25
2019-08-05 14:00:00 32.2 10 Sudoeste 24 Sudoeste 0 927.6 -1.2 27
2019-08-05 13:00:00 31.2 12 Oeste 29 Sudoeste 0 928.3 -0.7 26
2019-08-05 12:00:00 30.2 6 Sudoeste 22 Sur 0 928.6 -0.1 30
2019-08-05 11:00:00 28.7 5 Sudoeste 14 Este 0 928.8 0.3 33
2019-08-05 10:00:00 27.2 3 Sudeste 13 Este 0 929 0.9 34
2019-08-05 09:00:00 25.2 0 Calma 6 Sudeste 0 928.7 0.7 38
2019-08-05 08:00:00 20.6 3 Oeste 7 Oeste 0 928.5 0.5 41
2019-08-05 07:00:00 20.4 0 Calma 8 Norte 0 928.1 0.1 39
2019-08-05 06:00:00 23.4 0 Calma 28 Norte 0 928 -0.2 35
2019-08-05 05:00:00 24.7 9 Noroeste 28 Norte 0 928 -0.2 33
2019-08-05 04:00:00 25.7 13 Noroeste 26 Norte 0 928 -0.3 32
2019-08-05 03:00:00 26.4 10 Norte 30 Norte 0 928.2 0.1 31
2019-08-05 02:00:00 27.4 13 Norte 33 Norte 0 928.2 0.1 30
2019-08-05 01:00:00 27.8 13 Norte 26 Norte 0 928.3 0.9 31
2019-08-05 00:00:00 27.7 6 Noroeste 14 Oeste 0 928.1 1.5 30
2019-08-04 23:00:00 27.5 8 Noroeste 14 Oeste 0 928.1 1.8 31
2019-08-04 22:00:00 28.7 5 Noroeste 30 Oeste 0 927.4 1.2 29
2019-08-04 21:00:00 30.6 9 Oeste 30 Oeste 0 926.6 0.1 27
2019-08-04 20:00:00 32.5 11 Oeste 27 Oeste 0 926.3 -0.4 26
2019-08-04 19:00:00 33.7 10 Sudoeste 30 Sudoeste 0 926.2 -1 25
2019-08-04 18:00:00 33.7 15 Sudoeste 32 Sur 0 926.5 -1.1 24
2019-08-04 17:00:00 33.5 12 Oeste 30 Sudoeste 0 926.7 -1.3 23
2019-08-04 16:00:00 33.2 13 Sudoeste 31 Sudoeste 0 927.2 -1.1 24
2019-08-04 15:00:00 32 11 Oeste 28 Sudoeste 0 927.6 -1 27
2019-08-04 14:00:00 31.5 13 Oeste 25 Oeste 0 928 -0.6 29
2019-08-04 13:00:00 31 6 Oeste 25 Oeste 0 928.3 -0.4 29
2019-08-04 12:00:00 30.6 9 Sudoeste 26 Sudoeste 0 928.6 0.1 30
2019-08-04 11:00:00 28.9 9 Sudoeste 23 Sudoeste 0 928.6 0.7 32
2019-08-04 10:00:00 27.3 6 Sur 10 Sudoeste 0 928.7 1.4 35
2019-08-04 09:00:00 25.5 4 Este 9 Nordeste 0 928.5 1.1 37
2019-08-04 08:00:00 22.7 4 Nordeste 20 Noroeste 0 927.9 0.7 41
2019-08-04 07:00:00 24.1 14 Noroeste 32 Norte 0 927.3 0 39
2019-08-04 06:00:00 24.2 16 Noroeste 29 Norte 0 927.4 0.1 38
2019-08-04 05:00:00 24.3 14 Noroeste 33 Norte 0 927.2 0.1 37
2019-08-04 04:00:00 25.5 14 Norte 30 Norte 0 927.3 0.2 34
2019-08-04 03:00:00 26.3 9 Norte 32 Noroeste 0 927.3 0.4 30
2019-08-04 02:00:00 27.6 9 Norte 23 Noroeste 0 927.1 -0.1 29
2019-08-04 01:00:00 28.1 10 Noroeste 20 Noroeste 0 927.1 0.6 27
2019-08-04 00:00:00 27.7 7 Norte 11 Noroeste 0 926.9 1 25
2019-08-03 23:00:00 26.6 5 Noroeste 21 Oeste 0 927.2 1.7 25
2019-08-03 22:00:00 29.5 12 Oeste 23 Oeste 0 926.5 0.7 23
2019-08-03 21:00:00 30.7 9 Oeste 27 Sudoeste 0 925.9 -0.1 22
2019-08-03 20:00:00 32.3 17 Oeste 30 Oeste 0 925.5 -0.9 20
2019-08-03 19:00:00 33.7 11 Oeste 35 Oeste 0 925.8 -1.1 19
2019-08-03 18:00:00 33.8 14 Sudoeste 32 Sur 0 926 -1.5 19
2019-08-03 17:00:00 34.2 11 Sudoeste 33 Sur 0 926.4 -1.7 20
2019-08-03 16:00:00 33.1 9 Sur 35 Sudoeste 0 926.9 -1.7 21
2019-08-03 15:00:00 33.4 9 Sur 27 Sur 0 927.5 -1.2 24
2019-08-03 14:00:00 32.2 10 Sur 25 Sur 0 928.1 -0.5 27
2019-08-03 13:00:00 30.4 9 Sur 17 Sur 0 928.6 -0.2 30
2019-08-03 12:00:00 28.8 5 Sudeste 18 Sudeste 0 928.7 -0.1 37
2019-08-03 11:00:00 27.4 6 Sudeste 19 Sudeste 0 928.6 0 40
2019-08-03 10:00:00 25.1 11 Este 18 Este 0 928.8 0.6 44
2019-08-03 09:00:00 24.3 6 Nordeste 17 Nordeste 0 928.8 1.1 42
2019-08-03 08:00:00 22.1 5 Nordeste 13 Nordeste 0 928.6 0.9 40
2019-08-03 07:00:00 21.1 8 Nordeste 13 Nordeste 0 928.2 0.6 40
2019-08-03 06:00:00 21 6 Norte 9 Norte 0 927.7 0 40
2019-08-03 05:00:00 20.3 0 Calma 10 Nordeste 0 927.7 0.3 36
2019-08-03 04:00:00 21.9 3 Nordeste 18 Este 0 927.6 0.2 32
2019-08-03 03:00:00 23 5 Nordeste 19 Este 0 927.7 0.2 32
2019-08-03 02:00:00 23.8 2 Sudeste 9 Sur 0 927.4 -0.2 30
2019-08-03 01:00:00 23 3 Sudeste 13 Sur 0 927.4 0.1 29
2019-08-03 00:00:00 23.3 0 Calma 6 Sudeste 0 927.5 0.5 28
2019-08-02 23:00:00 25.1 0 Calma 11 Oeste 0 927.6 0.9 26
2019-08-02 22:00:00 28.4 6 Noroeste 17 Oeste 0 927.3 0.4 23
2019-08-02 21:00:00 30.8 5 Oeste 21 Sudoeste 0 927 0.3 20
2019-08-02 20:00:00 32.7 12 Sudoeste 26 Sur 0 926.7 -0.6 19
2019-08-02 19:00:00 32.8 12 Sudoeste 33 Sudoeste 0 926.9 -0.9 20
2019-08-02 18:00:00 33.3 14 Sudoeste 35 Sudoeste 0 926.7 -1.5 23
2019-08-02 17:00:00 34.1 14 Sudoeste 25 Sudoeste 0 927.3 -1.3 23
2019-08-02 16:00:00 33.2 10 Sudoeste 27 Sudeste 0 927.8 -1.2 23
2019-08-02 15:00:00 32.8 3 Sur 26 Sudoeste 0 928.2 -1 26
2019-08-02 14:00:00 31.2 13 Sudoeste 29 Sudoeste 0 928.6 -0.5 29
2019-08-02 13:00:00 30.4 3 Sudoeste 22 Sur 0 929 0 32
2019-08-02 12:00:00 29.5 7 Sudeste 20 Sudeste 0 929.2 0.3 35
2019-08-02 11:00:00 28 6 Sudoeste 14 Oeste 0 929.1 0.5 33
2019-08-02 10:00:00 26.4 6 Sudoeste 9 Sur 0 929 0.9 35
2019-08-02 09:00:00 24.7 0 Calma 5 Nordeste 0 928.9 0.9 37
2019-08-02 08:00:00 19.3 0 Calma 5 Nordeste 0 928.6 0.7 44
2019-08-02 07:00:00 18.1 2 Nordeste 6 Nordeste 0 928.1 0.5 42
2019-08-02 06:00:00 18.9 2 Nordeste 6 Nordeste 0 928 0.3 39
2019-08-02 05:00:00 22.1 7 Nordeste 11 Nordeste 0 927.9 0.2 36
2019-08-02 04:00:00 20.3 3 Nordeste 9 Nordeste 0 927.6 0 36
2019-08-02 03:00:00 21.3 0 Calma 15 Oeste 0 927.7 0.4 34
2019-08-02 02:00:00 24.5 9 Oeste 19 Oeste 0 927.7 0.7 32
2019-08-02 01:00:00 24.1 3 Este 22 Norte 0 927.6 1.2 30
2019-08-02 00:00:00 26.9 10 Norte 22 Norte 0 927.3 1.5 29
2019-08-01 23:00:00 27.6 9 Norte 19 Norte 0 927 1.8 29
2019-08-01 22:00:00 27.2 4 Norte 14 Oeste 0 926.4 1.6 28
2019-08-01 21:00:00 29.6 9 Oeste 30 Oeste 0 925.8 0.9 27
2019-08-01 20:00:00 31.1 13 Sudoeste 34 Sudoeste 0 925.2 0.2 26
2019-08-01 19:00:00 31.9 13 Oeste 29 Sur 0 924.8 -0.9 25
2019-08-01 18:00:00 32.4 14 Sudoeste 30 Oeste 0 924.9 -1.1 24
2019-08-01 17:00:00 32.4 12 Sudoeste 35 Sudoeste 0 925 -1.4 26
2019-08-01 16:00:00 31.6 16 Sudoeste 36 Sur 0 925.7 -1.1 27
2019-08-01 15:00:00 31.2 12 Sudoeste 28 Sudoeste 0 926 -0.8 33
2019-08-01 14:00:00 30.5 11 Sudoeste 27 Sudoeste 0 926.4 -0.5 35
2019-08-01 13:00:00 28 17 Sudoeste 28 Sur 0 926.8 -0.1 39
2019-08-01 12:00:00 26.8 8 Sudeste 18 Sudeste 0 926.8 0 46
2019-08-01 11:00:00 24.8 8 Sudeste 16 Este 0 926.9 0.5 52
2019-08-01 10:00:00 22.7 11 Este 20 Sudeste 0 926.9 0.4 57
2019-08-01 09:00:00 21.6 6 Este 13 Este 0 926.8 0.4 62
2019-08-01 08:00:00 19.3 5 Nordeste 12 Nordeste 0 926.4 0 70
2019-08-01 07:00:00 19.2 4 Nordeste 16 Este 0 926.5 0.1 69
2019-08-01 06:00:00 19.6 5 Nordeste 9 Este 0 926.4 -0.3 67
2019-08-01 05:00:00 20.7 6 Nordeste 12 Nordeste 0 926.4 -0.3 64
2019-08-01 04:00:00 21.7 6 Este 16 Sudeste 0 926.4 -0.2 62
2019-08-01 03:00:00 22.2 6 Este 20 Sudeste 0 926.7 0.3 61
2019-08-01 02:00:00 23.3 11 Sudeste 24 Sudeste 0 926.7 0.6 58
2019-08-01 01:00:00 24.9 10 Sudeste 23 Sur 0 926.6 1.7 54
2019-08-01 00:00:00 26.3 9 Sudeste 23 Sudeste 0 926.4 1.7 48
2019-07-31 23:00:00 27.5 15 Sudeste 28 Sur 0 926.1 1.2 45
2019-07-31 22:00:00 27.7 0 Calma 5 Oeste 0 924.9 -0.2 34
2019-07-31 21:00:00 30.5 4 Noroeste 13 Sudeste 0 924.7 -0.7 31
2019-07-31 20:00:00 31.1 7 Sudoeste 16 Sur 0 924.9 -1.1 30
2019-07-31 19:00:00 31.4 10 Sur 22 Sur 0 925.1 -1.7 30
2019-07-31 18:00:00 31.7 11 Sur 26 Sudeste 0 925.4 -2.1 30
2019-07-31 17:00:00 31.5 6 Sudoeste 22 Sur 0 926 -2.1 32
2019-07-31 16:00:00 29.5 10 Sur 24 Sur 0 926.8 -2 35
2019-07-31 15:00:00 29.2 7 Sudeste 28 Sudeste 0 927.5 -1.6 38
2019-07-31 14:00:00 27.1 13 Sudeste 33 Nordeste 0 928.1 -1.1 42
2019-07-31 13:00:00 26.5 10 Sudeste 28 Sudeste 0 928.8 -0.2 47
2019-07-31 12:00:00 24.6 12 Sudeste 27 Este 0 929.1 0 48
2019-07-31 11:00:00 23.1 8 Este 24 Nordeste 0 929.2 0.1 55
2019-07-31 10:00:00 21.4 10 Este 23 Nordeste 0 929 -0.4 55
2019-07-31 09:00:00 20.7 11 Este 23 Este 0 929.1 0 46
2019-07-31 08:00:00 20.1 6 Nordeste 18 Nordeste 0 929.1 0.1 44
2019-07-31 07:00:00 19.4 8 Este 14 Nordeste 0 929.4 0.2 44
2019-07-31 06:00:00 19.6 6 Nordeste 16 Nordeste 0 929.1 -0.5 42
2019-07-31 05:00:00 19.6 6 Nordeste 12 Nordeste 0 929 -0.2 41
2019-07-31 04:00:00 18.9 5 Este 15 Nordeste 0 929.2 0.6 41
2019-07-31 03:00:00 19.6 6 Nordeste 14 Nordeste 0 929.6 1 39
2019-07-31 02:00:00 19.3 3 Este 7 Nordeste 0 929.2 1.2 37
2019-07-31 01:00:00 18.5 2 Norte 8 Este 0 928.6 1.2 36
2019-07-31 00:00:00 20 0 Calma 7 Sudoeste 0 928.6 1.4 33
2019-07-30 23:00:00 23.1 5 Sudoeste 25 Norte 0 928 1.1 30
2019-07-30 22:00:00 25.3 11 Norte 32 Norte 0 927.4 0.6 27
2019-07-30 21:00:00 26.2 13 Norte 28 Norte 0 927.2 0 26
2019-07-30 20:00:00 28.4 12 Norte 24 Nordeste 0 926.9 -0.7 24
2019-07-30 19:00:00 29.8 6 Noroeste 20 Noroeste 0 926.8 -1.6 23
2019-07-30 18:00:00 30.4 10 Noroeste 30 Oeste 0 927.2 -1.7 23
2019-07-30 17:00:00 29.3 5 Sudoeste 21 Oeste 0 927.6 -2 23
2019-07-30 16:00:00 28.8 5 Noroeste 28 Oeste 0 928.4 -1.6 25
2019-07-30 15:00:00 26.4 9 Sudeste 26 Sudeste 0 928.9 -1.3 28
2019-07-30 14:00:00 25.5 6 Oeste 32 Oeste 0 929.6 -0.6 30
2019-07-30 13:00:00 24.4 5 Oeste 20 Oeste 0 930 -0.4 32
2019-07-30 12:00:00 22.8 10 Oeste 24 Noroeste 0 930.2 0.4 37
2019-07-30 11:00:00 20.9 12 Noroeste 26 Noroeste 0 930.2 1.1 42
2019-07-30 10:00:00 17.7 15 Noroeste 37 Noroeste 0 930.4 1.2 48
2019-07-30 09:00:00 15.3 24 Noroeste 44 Noroeste 0 929.8 1 51
2019-07-30 08:00:00 14.5 18 Noroeste 33 Norte 0 929.1 0.4 52
2019-07-30 07:00:00 15.1 4 Nordeste 19 Noroeste 0 929.2 0.9 49
2019-07-30 06:00:00 15.7 5 Noroeste 29 Noroeste 0 928.8 0.8 46
2019-07-30 05:00:00 16.6 0 Calma 26 Norte 0 928.7 1.1 44
2019-07-30 04:00:00 17.3 12 Norte 30 Norte 0 928.3 0.9 42
2019-07-30 03:00:00 18.2 15 Norte 39 Norte 0 928 0.6 39
2019-07-30 02:00:00 19.4 17 Norte 42 Norte 0 927.6 0.3 36
2019-07-30 01:00:00 20.6 14 Norte 42 Norte 0 927.4 1.2 34
2019-07-30 00:00:00 21.7 17 Norte 41 Norte 0 927.4 1.9 32
2019-07-29 23:00:00 22.8 14 Norte 36 Norte 0 927.3 2.3 30
2019-07-29 22:00:00 24.4 12 Norte 32 Noroeste 0 926.2 1.6 30
2019-07-29 21:00:00 26 12 Norte 33 Noroeste 0 925.5 1.3 29
2019-07-29 20:00:00 28.1 9 Norte 35 Norte 0 925 0.8 30
2019-07-29 19:00:00 28.4 12 Noroeste 28 Noroeste 0 924.6 0.2 31
2019-07-29 18:00:00 29.1 15 Oeste 39 Sudoeste 0 924.2 -0.6 29
2019-07-29 17:00:00 30.4 15 Oeste 33 Sudoeste 0 924.2 -0.9 26
2019-07-29 16:00:00 29.9 16 Oeste 32 Oeste 0 924.4 -0.8 26
2019-07-29 15:00:00 29.7 16 Sudoeste 33 Sudoeste 0 924.8 -0.6 26
2019-07-29 14:00:00 29.2 15 Sudoeste 28 Sudoeste 0 925.1 -0.4 29
2019-07-29 13:00:00 28 14 Sudoeste 28 Oeste 0 925.2 -0.3 32
2019-07-29 12:00:00 26.8 13 Sudoeste 25 Sudoeste 0 925.4 -0.1 34
2019-07-29 11:00:00 26.3 9 Sudoeste 18 Sudoeste 0 925.5 0.4 34
2019-07-29 10:00:00 24.5 5 Sudoeste 11 Sudoeste 0 925.5 0.9 34
2019-07-29 09:00:00 22.9 0 Calma 4 Este 0 925.5 1.2 35
2019-07-29 08:00:00 19.3 0 Calma 8 Sudoeste 0 925.1 0.7 37
2019-07-29 07:00:00 18.9 0 Calma 12 Nordeste 0 924.6 0.4 36
2019-07-29 06:00:00 21.8 12 Norte 22 Norte 0 924.3 -0.2 33
2019-07-29 05:00:00 22.7 8 Norte 17 Noroeste 0 924.4 0.1 33
2019-07-29 04:00:00 23.2 8 Noroeste 21 Norte 0 924.2 -0.3 33
2019-07-29 03:00:00 23.1 8 Norte 18 Noroeste 0 924.5 -0.1 33
2019-07-29 02:00:00 23.2 5 Norte 14 Noroeste 0 924.3 -0.1 33
2019-07-29 01:00:00 20.9 0 Calma 8 Nordeste 0 924.5 0.9 33
2019-07-29 00:00:00 22.9 5 Noroeste 18 Norte 0 924.6 1.5 30
2019-07-28 23:00:00 25.5 12 Norte 24 Norte 0 924.4 1.5 29
2019-07-28 22:00:00 26.1 11 Norte 23 Sudoeste 0 923.6 0.8 30
2019-07-28 21:00:00 27.1 11 Sudoeste 23 Sudoeste 0 923.1 0.2 34
2019-07-28 20:00:00 27.5 10 Sudoeste 28 Sudoeste 0 922.9 -0.4 34
2019-07-28 19:00:00 28.8 13 Sudoeste 31 Sudoeste 0 922.8 -1 33
2019-07-28 18:00:00 27.6 13 Sudoeste 28 Sudoeste 0 922.9 -1.3 34
2019-07-28 17:00:00 28.7 13 Sudoeste 32 Sudoeste 0 923.3 -1.6 34
2019-07-28 16:00:00 28.4 9 Sudoeste 28 Sudoeste 0 923.8 -1.6 35
2019-07-28 15:00:00 27.9 12 Sudoeste 27 Sur 0 924.2 -1.9 35
2019-07-28 14:00:00 25.9 12 Sudoeste 28 Sudeste 0 924.9 -1.4 38
2019-07-28 13:00:00 24.5 11 Sur 26 Sur 0 925.4 -1.3 41
2019-07-28 12:00:00 22.1 6 Sur 17 Sur 0 926.1 -0.3 46
2019-07-28 11:00:00 20.6 4 Sur 16 Sur 0 926.3 0 51
2019-07-28 10:00:00 18.8 4 Sudeste 12 Sudeste 0 926.7 0.5 56
2019-07-28 09:00:00 17.4 6 Este 10 Sudeste 0 926.4 0.5 60
2019-07-28 08:00:00 14.8 5 Nordeste 8 Este 0 926.3 0.7 70
2019-07-28 07:00:00 13.5 0 Calma 8 Norte 0 926.2 0.7 70
2019-07-28 06:00:00 14.6 2 Este 5 Este 0 925.9 0.8 65
2019-07-28 05:00:00 15.9 0 Calma 9 Norte 0 925.6 0.3 61
2019-07-28 04:00:00 17.3 5 Este 18 Norte 0 925.5 0.3 58
2019-07-28 03:00:00 18.9 10 Norte 24 Norte 0 925.1 0.3 57
2019-07-28 02:00:00 17.9 6 Noroeste 17 Norte 0 925.3 0.9 59
2019-07-28 01:00:00 19 4 Noroeste 22 Nordeste 0 925.2 1.5 54
2019-07-28 00:00:00 20.3 10 Nordeste 30 Nordeste 0 924.8 1.8 48
2019-07-27 23:00:00 21.1 12 Nordeste 28 Nordeste 0 924.4 2.1 45
2019-07-26 12:00:00 26.7 9 Sudoeste 27 Oeste 0 925.9 -0.1 45
2019-07-26 11:00:00 24.5 10 Noroeste 26 Noroeste 0 926 0.3 51
2019-07-26 10:00:00 23.1 9 Oeste 23 Oeste 0 926.1 0.3 56
2019-07-26 09:00:00 21.5 11 Oeste 22 Oeste 0 926 0.1 64
2019-07-26 08:00:00 20.2 5 Sur 11 Norte 0 925.7 0.1 67
2019-07-26 07:00:00 20.7 3 Oeste 18 Oeste 0 925.8 -0.5 61
2019-07-26 06:00:00 22.6 7 Oeste 31 Sudoeste 0 925.9 -0.2 52
2019-07-26 05:00:00 23.8 3 Noroeste 26 Norte 0 925.6 -0.4 45
2019-07-26 04:00:00 24.3 0 Calma 16 Oeste 0 926.3 0.2 41
2019-07-26 03:00:00 25.1 8 Noroeste 18 Noroeste 0 926.1 -0.1 38
2019-07-26 02:00:00 26.3 3 Norte 28 Norte 0 926 -0.2 34
2019-07-26 01:00:00 26.8 11 Norte 32 Noroeste 0 926.1 0 32
2019-07-26 00:00:00 27.5 7 Noroeste 22 Noroeste 0 926.2 0.1 29
2019-07-25 23:00:00 28.2 10 Noroeste 23 Norte 0 926.2 0.5 28
2019-07-25 22:00:00 28.8 9 Noroeste 24 Noroeste 0 926.1 0.3 28
2019-07-25 21:00:00 30.2 12 Oeste 24 Oeste 0 926.1 0.2 26
2019-07-25 20:00:00 31.8 10 Oeste 34 Sudoeste 0 925.7 -0.6 27
2019-07-25 19:00:00 32.7 16 Sudoeste 28 Sudoeste 0 925.8 -0.6 26
2019-07-25 18:00:00 33.2 14 Sudoeste 30 Sudoeste 0 925.9 -1.2 26
2019-07-25 17:00:00 32.9 14 Sudoeste 31 Sudoeste 0 926.3 -1.4 26
2019-07-25 16:00:00 32.7 15 Sudoeste 37 Sudoeste 0 926.4 -1.4 26
2019-07-25 15:00:00 32.6 16 Sur 32 Sudoeste 0 927.1 -1.1 27
2019-07-25 14:00:00 32 20 Sur 35 Sudoeste 0 927.7 -0.7 28
2019-07-25 13:00:00 31.4 18 Sudoeste 36 Sudoeste 0 927.8 -0.8 30
2019-07-25 12:00:00 30.3 6 Sur 18 Sudeste 0 928.2 0 31
2019-07-25 11:00:00 28.8 6 Sudeste 21 Sudeste 0 928.4 0.6 32
2019-07-25 10:00:00 28.3 8 Sudeste 17 Este 0 928.6 1 33
2019-07-25 09:00:00 26.4 6 Nordeste 11 Nordeste 0 928.2 0.8 36
2019-07-25 08:00:00 22 0 Calma 8 Nordeste 0 927.8 0.5 40
2019-07-25 07:00:00 22 5 Nordeste 9 Nordeste 0 927.6 0.2 39
2019-07-25 06:00:00 21.5 0 Calma 9 Nordeste 0 927.4 -0.1 39
2019-07-25 05:00:00 22.4 0 Calma 8 Nordeste 0 927.3 0.1 38
2019-07-25 04:00:00 24.5 4 Nordeste 14 Nordeste 0 927.4 0.4 35
2019-07-25 03:00:00 25.5 9 Nordeste 17 Nordeste 0 927.5 0.8 35
2019-07-25 02:00:00 26.5 6 Nordeste 12 Nordeste 0 927.2 0.4 36
2019-07-25 01:00:00 26.8 7 Nordeste 12 Nordeste 0 927 0.6 36
2019-07-25 00:00:00 26.4 0 Calma 7 Nordeste 0 926.7 0.5 36
2019-07-24 23:00:00 27.3 4 Nordeste 8 Nordeste 0 926.8 0.5 33
2019-07-24 22:00:00 28.9 0 Calma 7 Sur 0 926.4 -0.2 29
2019-07-24 21:00:00 32.8 5 Sur 14 Sudoeste 0 926.2 -0.9 26
2019-07-24 20:00:00 33.6 7 Sudoeste 18 Sur 0 926.3 -1.2 26
2019-07-24 19:00:00 33.9 9 Sur 26 Sudoeste 0 926.6 -1.3 27
2019-07-24 18:00:00 34.3 8 Sur 27 Sudoeste 0 927.1 -1.3 26
2019-07-24 17:00:00 35 7 Sur 29 Sudeste 0 927.5 -1.6 26
2019-07-24 16:00:00 34.3 7 Sudoeste 26 Sur 0 927.9 -1.7 27
2019-07-24 15:00:00 33.2 5 Sudeste 27 Sur 0 928.4 -1.5 28
2019-07-24 14:00:00 32.8 8 Sudeste 25 Sudeste 0 929.1 -1 29
2019-07-24 13:00:00 31.7 12 Sudeste 24 Sudeste 0 929.6 -0.6 30
2019-07-24 12:00:00 31 7 Sudeste 22 Este 0 929.9 -0.2 31
2019-07-24 11:00:00 28.8 12 Sudeste 19 Sudeste 0 930.1 0.1 34
2019-07-24 10:00:00 28.2 6 Sudeste 18 Este 0 930.2 0.5 36
2019-07-24 09:00:00 26.1 5 Nordeste 11 Nordeste 0 930.1 0.2 41
2019-07-24 08:00:00 21.4 2 Nordeste 10 Nordeste 0 930 0.2 49
2019-07-24 07:00:00 21.9 7 Nordeste 11 Nordeste 0 929.7 0.3 47
2019-07-24 06:00:00 20.4 4 Nordeste 7 Nordeste 0 929.9 -0.2 50
2019-07-24 05:00:00 19.6 0 Calma 4 Oeste 0 929.8 -1.3 51
2019-07-24 04:00:00 20.4 0 Calma 8 Nordeste 0 929.4 -1.7 51
2019-07-24 03:00:00 22.4 5 Nordeste 9 Nordeste 0 930.1 -1.1 46
2019-07-24 02:00:00 21.7 0 Calma 8 Nordeste 0 931.1 -0.1 49
2019-07-24 01:00:00 23.3 5 Nordeste 15 Nordeste 0 931.1 -0.8 46
2019-07-24 00:00:00 23.7 8 Nordeste 20 Nordeste 0 931.2 0.9 48
2019-07-23 23:00:00 24.3 10 Este 19 Sudeste 0.1 931.2 1.8 49
2019-07-23 22:00:00 24.2 2 Este 13 Oeste 0 931.9 4.5 56
2019-07-23 21:00:00 25.9 3 Nordeste 33 Sudoeste 0 930.3 2.4 46
2019-07-23 20:00:00 29.2 20 Sur 58 Sur 0 929.4 0.7 29
2019-07-23 19:00:00 34.5 9 Oeste 23 Sudeste 0 927.4 -2.2 22
2019-07-23 18:00:00 35.2 7 Sudoeste 25 Sur 0 927.9 -2 21
2019-07-23 17:00:00 34.6 5 Sur 24 Sudoeste 0 928.7 -1.8 22
2019-07-23 16:00:00 33.7 12 Sur 22 Sur 0 929.6 -1.7 22
2019-07-23 15:00:00 32.7 12 Sudeste 30 Este 0 929.9 -2 26
2019-07-23 14:00:00 31.2 11 Este 25 Sudeste 0 930.5 -1.8 26
2019-07-23 13:00:00 29.5 10 Este 20 Sudeste 0 931.3 -0.6 29
2019-07-23 12:00:00 29.6 0 Calma 17 Sudeste 0 931.9 0 32
2019-07-23 11:00:00 25.9 10 Este 22 Nordeste 0 932.3 0.6 36
2019-07-23 10:00:00 24.9 6 Nordeste 12 Nordeste 0 931.9 -0.1 46
2019-07-23 09:00:00 21.7 8 Nordeste 17 Norte 0 931.9 -0.7 60
2019-07-23 08:00:00 21 9 Nordeste 42 Norte 0.4 931.7 -0.2 61
2019-07-23 07:00:00 21.3 11 Norte 40 Noroeste 0.1 932 0.1 58
2019-07-23 06:00:00 20.1 12 Nordeste 21 Nordeste 1.3 932.6 0.5 70
2019-07-23 05:00:00 24.9 6 Este 12 Este 0 931.9 -0.2 35
2019-07-23 04:00:00 25.8 5 Nordeste 13 Este 0 931.9 -0.5 33
2019-07-23 03:00:00 26.7 5 Nordeste 15 Nordeste 0 932.1 0.4 31
2019-07-23 02:00:00 27.6 6 Nordeste 19 Este 0 932.1 0.7 28
2019-07-23 01:00:00 28.6 3 Este 18 Nordeste 0 932.4 1.9 25
2019-07-23 00:00:00 29.9 8 Este 19 Nordeste 0 931.7 1.7 25
2019-07-22 23:00:00 30.6 8 Este 22 Este 0 931.4 1.5 26
2019-07-22 22:00:00 31.8 5 Este 12 Sudeste 0 930.5 0.3 27
2019-07-22 21:00:00 33.1 3 Este 18 Sudeste 0 930 -0.6 26
2019-07-22 20:00:00 34.7 9 Sudeste 26 Sur 0 929.9 -1.3 26
2019-07-22 19:00:00 35.1 15 Sudeste 28 Sudeste 0 930.2 -1.9 26
2019-07-22 18:00:00 35.2 12 Sudeste 29 Sudeste 0 930.6 -2.3 26
2019-07-22 17:00:00 35.1 11 Sur 31 Sudeste 0 931.2 -2.1 26
2019-07-22 16:00:00 34.2 16 Este 30 Este 0 932.1 -1.5 28
2019-07-22 15:00:00 33.2 9 Sudeste 31 Este 0 932.9 -1.1 29
2019-07-22 14:00:00 31.9 14 Sudeste 30 Este 0 933.3 -0.7 29
2019-07-22 13:00:00 30 12 Sudeste 28 Este 0 933.6 -0.7 30
2019-07-22 12:00:00 29.3 14 Sudeste 29 Este 0 934 -0.4 32
2019-07-22 11:00:00 28.5 15 Sudeste 25 Sudeste 0 934 0 33
2019-07-22 10:00:00 26.7 14 Este 27 Sudeste 0 934.3 0.4 35
2019-07-22 09:00:00 25.8 10 Este 18 Este 0 934.4 0.7 36
2019-07-22 08:00:00 23.4 6 Nordeste 15 Nordeste 0 934 0.4 41
2019-07-22 07:00:00 22.6 6 Nordeste 15 Nordeste 0 933.9 0.1 41
2019-07-22 06:00:00 23.6 8 Nordeste 15 Nordeste 0 933.7 -0.4 42
2019-07-22 05:00:00 24.3 8 Nordeste 17 Nordeste 0 933.6 -0.4 41
2019-07-22 04:00:00 24.3 8 Nordeste 16 Norte 0 933.8 0.1 40
2019-07-22 03:00:00 25.9 5 Este 16 Este 0 934.1 1.2 39
2019-07-22 02:00:00 27.2 5 Sudeste 29 Sudeste 0 934 1.9 39
2019-07-22 01:00:00 28.5 12 Sudeste 24 Sudeste 0 933.7 2.8 37
2019-07-22 00:00:00 28.6 5 Nordeste 10 Nordeste 0 932.9 2.7 33
2019-07-21 23:00:00 31.1 2 Oeste 17 Sudoeste 0 932.1 2.1 31
2019-07-21 22:00:00 32.1 6 Sur 26 Sudeste 0 930.9 0.8 29
2019-07-21 21:00:00 34.3 4 Sudoeste 17 Sur 0 930.2 0.1 26
2019-07-21 20:00:00 34.9 12 Sur 23 Sur 0 930 -0.7 26
2019-07-21 19:00:00 36 8 Sudoeste 25 Sudoeste 0 930.1 -1.1 25
2019-07-21 18:00:00 36.1 4 Sur 23 Sudeste 0 930.1 -1.4 26
2019-07-21 17:00:00 36 9 Sur 30 Sur 0 930.7 -1.3 26
2019-07-21 16:00:00 35.2 12 Sur 24 Sudeste 0 931.2 -1.2 27
2019-07-21 15:00:00 34 6 Sur 22 Sudeste 0 931.5 -0.9 29
2019-07-21 14:00:00 32.7 2 Este 26 Sudeste 0 932 -0.1 30
2019-07-21 13:00:00 32.4 9 Este 24 Este 0 932.4 0.3 33
2019-07-21 12:00:00 29.4 14 Sudeste 25 Sudeste 0 932.4 0.4 35
2019-07-21 11:00:00 28.1 12 Sudeste 22 Sudeste 0 932.1 0.6 38
2019-07-21 10:00:00 27.3 12 Este 22 Nordeste 0 932.1 0.9 39
2019-07-21 09:00:00 26.1 7 Este 17 Este 0 932 1 42
2019-07-21 08:00:00 23.2 5 Nordeste 12 Nordeste 0 931.5 0.7 45
2019-07-21 07:00:00 22.2 6 Nordeste 12 Nordeste 0 931.2 0.5 44
2019-07-21 06:00:00 23.2 5 Nordeste 9 Nordeste 0 931 0.8 42
2019-07-21 05:00:00 24 6 Nordeste 15 Nordeste 0 930.8 0.5 39
2019-07-21 04:00:00 24.5 7 Nordeste 13 Nordeste 0 930.7 1 33
2019-07-21 03:00:00 26.2 0 Calma 12 Noroeste 0 930.2 0.8 32
2019-07-21 02:00:00 27.6 6 Este 25 Norte 0 930.3 1.3 29
2019-07-21 01:00:00 28.6 9 Noroeste 18 Noroeste 0 929.7 1.4 28
2019-07-21 00:00:00 29.4 9 Noroeste 23 Norte 0 929.4 1.7 28
2019-07-20 23:00:00 30.7 11 Norte 21 Norte 0 929 1.6 28
2019-07-20 22:00:00 31.1 6 Noroeste 18 Oeste 0 928.3 1.2 28
2019-07-20 21:00:00 33.3 8 Oeste 24 Sudoeste 0 927.7 0.7 26
2019-07-20 20:00:00 34.6 13 Sudoeste 28 Oeste 0 927.4 0.1 25
2019-07-20 19:00:00 35.2 15 Sudoeste 28 Sudoeste 0 927.1 -0.6 26
2019-07-20 18:00:00 36 5 Oeste 36 Sudoeste 0 927 -1.2 26
2019-07-20 17:00:00 35.2 14 Sudoeste 34 Sudoeste 0 927.3 -1.1 26
2019-07-20 16:00:00 34.6 14 Sudoeste 30 Sur 0 927.7 -1.1 27
2019-07-20 15:00:00 34 11 Sur 24 Sur 0 928.2 -0.6 29
2019-07-20 14:00:00 33.2 5 Noroeste 22 Este 0 928.4 -0.1 30
2019-07-20 13:00:00 30.7 9 Sudeste 26 Sudeste 0 928.8 0.1 33
2019-07-20 12:00:00 29.9 13 Sudeste 24 Sudeste 0 928.8 0.3 35
2019-07-20 11:00:00 28.6 10 Sudeste 24 Este 0 928.5 0.7 36
2019-07-20 10:00:00 26.2 10 Este 26 Nordeste 0 928.7 1.3 39
2019-07-20 09:00:00 25.4 9 Este 18 Nordeste 0 928.5 1.5 39
2019-07-20 08:00:00 22.9 7 Nordeste 12 Nordeste 0 927.8 1 40
2019-07-20 07:00:00 22.3 6 Nordeste 13 Nordeste 0 927.4 0.8 39
2019-07-20 06:00:00 22.7 6 Nordeste 11 Nordeste 0 927 0.3 39
2019-07-20 05:00:00 24 3 Nordeste 14 Noroeste 0 926.8 0.2 37
2019-07-20 04:00:00 26.6 12 Norte 32 Nordeste 0 926.6 0.4 34
2019-07-20 03:00:00 27.1 6 Norte 19 Norte 0 926.7 0.6 32
2019-07-20 02:00:00 27.1 4 Este 17 Este 0 926.6 0.6 31
2019-07-20 01:00:00 29.8 8 Norte 17 Norte 0 926.2 0.6 29
2019-07-20 00:00:00 27.3 3 Noroeste 10 Noroeste 0 926.1 0.7 31
2019-07-19 23:00:00 29.4 6 Noroeste 12 Noroeste 0 926 0.8 29
2019-07-19 22:00:00 30.7 6 Noroeste 17 Sudoeste 0 925.6 0.4 27
2019-07-19 21:00:00 33.3 5 Oeste 18 Oeste 0 925.4 -0.2 25
2019-07-19 20:00:00 34.2 9 Oeste 29 Sudoeste 0 925.2 -0.7 25
2019-07-19 19:00:00 35.5 9 Sudoeste 29 Sudoeste 0 925.2 -1.6 24
2019-07-19 18:00:00 34.7 7 Sudoeste 28 Sudoeste 0 925.6 -1.7 24
2019-07-19 17:00:00 34.6 7 Noroeste 28 Oeste 0 925.9 -2.2 26
2019-07-19 16:00:00 34.4 17 Sudoeste 31 Oeste 0 926.8 -1.5 26
2019-07-19 15:00:00 34.5 16 Sudoeste 31 Sudoeste 0 927.3 -1.4 29
2019-07-19 14:00:00 32.3 12 Sur 22 Sur 0 928.1 -0.9 32
2019-07-19 13:00:00 31.4 6 Sudeste 25 Este 0 928.3 -1 34
2019-07-19 12:00:00 29.4 10 Sudeste 22 Sudeste 0 928.7 -0.3 37
2019-07-19 11:00:00 28 8 Este 23 Sudeste 0 929 0.3 39
2019-07-19 10:00:00 25.9 11 Este 21 Este 0 929.3 0.8 41
2019-07-19 09:00:00 24.8 11 Este 24 Nordeste 0 929 0.6 41
2019-07-19 08:00:00 23.5 5 Nordeste 10 Nordeste 0 928.7 0.3 42
2019-07-19 07:00:00 22.2 5 Nordeste 11 Nordeste 0 928.5 0.3 41
2019-07-19 06:00:00 23.5 7 Nordeste 12 Nordeste 0 928.4 -0.2 38
2019-07-19 05:00:00 23.8 6 Nordeste 12 Nordeste 0 928.4 -0.3 37
2019-07-19 04:00:00 23.1 4 Nordeste 7 Nordeste 0 928.2 -0.2 36
2019-07-19 03:00:00 23.8 4 Nordeste 11 Nordeste 0 928.6 0.8 34
2019-07-19 02:00:00 24.9 4 Nordeste 9 Nordeste 0 928.7 1.2 33
2019-07-19 01:00:00 27.1 0 Calma 22 Norte 0 928.4 1.5 30
2019-07-19 00:00:00 29.3 14 Norte 32 Norte 0 927.8 1.2 29